createdAt,value
2018-06-12T04:39:40.135Z,332
2018-06-12T04:40:00.294Z,332
2018-06-12T04:40:20.453Z,332
2018-06-12T04:45:49.393Z,360
2018-06-12T04:46:09.742Z,364
2018-06-12T04:46:30.011Z,368
2018-06-12T04:46:50.166Z,368
2018-06-12T04:48:53.496Z,408
2018-06-12T04:50:59.895Z,468
2018-06-12T04:51:20.125Z,476
2018-06-12T04:56:15.648Z,572
2018-06-12T04:59:33.723Z,684
2018-06-12T05:11:23.100Z,732
2018-06-12T05:13:17.488Z,764
2018-06-12T05:13:38.304Z,772
2018-06-12T05:13:58.457Z,784
2018-06-12T05:14:18.614Z,800
2018-06-12T05:14:38.791Z,812
2018-06-12T05:14:59.013Z,824
2018-06-12T05:15:19.183Z,832
2018-06-12T05:16:35.624Z,864
2018-06-12T05:16:55.787Z,872
2018-06-12T05:18:02.324Z,904
2018-06-12T05:18:22.534Z,912
2018-06-12T05:19:16.738Z,952
2018-06-12T05:19:37.004Z,964
2018-06-12T05:19:57.193Z,976
2018-06-12T05:20:17.423Z,988
2018-06-12T05:20:37.687Z,992
2018-06-12T05:20:57.869Z,992
2018-06-12T05:21:18.054Z,984
2018-06-12T05:21:38.237Z,980
2018-06-12T05:21:58.474Z,972
2018-06-12T05:22:18.657Z,964
2018-06-12T05:22:38.847Z,952
2018-06-12T05:22:59.124Z,940
2018-06-12T05:24:08.069Z,912
2018-06-12T05:24:28.297Z,900
2018-06-12T05:25:22.441Z,876
2018-06-12T05:25:42.590Z,868
2018-06-12T05:26:36.791Z,852
2018-06-12T05:26:57.143Z,844
2018-06-12T05:27:51.245Z,840
2018-06-12T05:28:11.430Z,836
2018-06-12T05:28:53.226Z,832
2018-06-12T05:29:13.352Z,836
2018-06-12T05:30:07.623Z,848
2018-06-12T05:31:03.534Z,876
2018-06-12T05:31:23.723Z,892
2018-06-12T05:32:17.807Z,924
2018-06-12T05:32:37.992Z,928
2018-06-12T05:33:32.185Z,940
2018-06-12T05:33:52.327Z,940
2018-06-12T05:34:46.500Z,932
2018-06-12T05:35:06.675Z,924
2018-06-12T05:36:07.340Z,904
2018-06-12T05:36:27.583Z,900
2018-06-12T05:37:15.721Z,892
2018-06-12T05:37:35.857Z,892
2018-06-12T05:38:36.718Z,896
2018-06-12T05:38:56.862Z,904
2018-06-12T05:40:03.854Z,900
2018-06-12T05:40:24.017Z,904
2018-06-12T05:41:31.113Z,888
2018-06-12T05:41:51.307Z,880
2018-06-12T05:42:45.733Z,872
2018-06-12T05:44:43.552Z,868
2018-06-12T05:47:18.569Z,808
2018-06-12T05:48:08.158Z,796
2018-06-12T05:48:57.646Z,792
2018-06-12T05:49:41.117Z,800
2018-06-12T05:50:24.603Z,816
2018-06-12T05:50:44.825Z,824
2018-06-12T05:51:51.719Z,864
2018-06-12T05:52:11.905Z,876
2018-06-12T05:53:00.299Z,908
2018-06-12T05:53:20.530Z,916
2018-06-12T05:53:40.702Z,920
2018-06-12T05:54:39.950Z,932
2018-06-12T05:55:00.111Z,932
2018-06-12T05:55:20.271Z,936
2018-06-12T05:55:40.523Z,936
2018-06-12T05:56:00.610Z,936
2018-06-12T05:56:21.674Z,936
2018-06-12T05:56:41.868Z,940
2018-06-12T05:57:02.030Z,944
2018-06-12T05:57:53.226Z,956
2018-06-12T05:58:13.397Z,964
2018-06-12T05:59:08.093Z,984
2018-06-12T05:59:28.330Z,992
2018-06-12T06:00:53.901Z,980
2018-06-12T06:01:43.728Z,948
2018-06-12T06:02:46.010Z,896
2018-06-12T06:05:21.560Z,852
2018-06-12T06:07:06.936Z,868
2018-06-12T06:07:27.129Z,872
2018-06-12T06:08:27.988Z,884
2018-06-12T06:08:48.229Z,888
2018-06-12T06:09:48.945Z,904
2018-06-12T06:10:09.141Z,908
2018-06-12T06:11:03.669Z,944
2018-06-12T06:11:23.847Z,956
2018-06-12T06:11:44.043Z,976
2018-06-12T06:12:04.223Z,984
2018-06-12T06:12:24.441Z,996
2018-06-12T06:12:44.626Z,1004
2018-06-12T06:13:04.800Z,1012
2018-06-12T06:13:24.998Z,1016
2018-06-12T06:13:45.151Z,1020
2018-06-12T06:14:05.472Z,1024
2018-06-12T06:14:25.621Z,1036
2018-06-12T06:14:45.789Z,1044
2018-06-12T06:15:05.966Z,1060
2018-06-12T06:15:26.131Z,1080
2018-06-12T06:15:46.281Z,1096
2018-06-12T06:16:06.467Z,1116
2018-06-12T06:16:26.606Z,1136
2018-06-12T06:16:46.758Z,1156
2018-06-12T06:17:07.018Z,1176
2018-06-12T06:17:27.246Z,1200
2018-06-12T06:17:47.435Z,1228
2018-06-12T06:18:07.616Z,1248
2018-06-12T06:18:27.805Z,1272
2018-06-12T06:18:48.011Z,1292
2018-06-12T06:19:08.197Z,1316
2018-06-12T06:19:28.365Z,1328
2018-06-12T06:19:48.548Z,1336
2018-06-12T06:20:08.723Z,1352
2018-06-12T06:20:28.855Z,1364
2018-06-12T06:20:49.037Z,1376
2018-06-12T06:21:09.194Z,1392
2018-06-12T06:21:29.365Z,1408
2018-06-12T06:21:49.547Z,1428
2018-06-12T06:22:09.685Z,1440
2018-06-12T06:22:29.961Z,1444
2018-06-12T06:22:50.148Z,1444
2018-06-12T06:23:10.356Z,1440
2018-06-12T06:23:30.535Z,1436
2018-06-12T06:23:50.752Z,1424
2018-06-12T06:24:10.922Z,1412
2018-06-12T06:24:31.096Z,1404
2018-06-12T06:24:51.256Z,1392
2018-06-12T06:25:11.453Z,1384
2018-06-12T06:25:31.622Z,1388
2018-06-12T06:25:51.787Z,1388
2018-06-12T06:26:11.948Z,1396
2018-06-12T06:26:32.093Z,1396
2018-06-12T06:26:52.245Z,1400
2018-06-12T06:27:12.445Z,1400
2018-06-12T06:27:32.605Z,1400
2018-06-12T06:27:52.791Z,1404
2018-06-12T06:28:12.947Z,1404
2018-06-12T06:28:33.110Z,1408
2018-06-12T06:28:53.266Z,1420
2018-06-12T06:29:13.526Z,1432
2018-06-12T06:29:33.794Z,1448
2018-06-12T06:29:53.990Z,1468
2018-06-12T06:30:14.178Z,1488
2018-06-12T06:30:34.319Z,1504
2018-06-12T06:30:54.483Z,1528
2018-06-12T06:31:14.644Z,1544
2018-06-12T06:31:34.932Z,1564
2018-06-12T06:31:55.116Z,1584
2018-06-12T06:32:15.270Z,1592
2018-06-12T06:32:35.424Z,1600
2018-06-12T06:32:55.620Z,1604
2018-06-12T06:33:15.809Z,1592
2018-06-12T06:33:36.034Z,1572
2018-06-12T06:33:56.201Z,1544
2018-06-12T06:34:16.430Z,1508
2018-06-12T06:34:36.643Z,1472
2018-06-12T06:34:56.884Z,1440
2018-06-12T06:35:17.134Z,1412
2018-06-12T06:35:37.279Z,1384
2018-06-12T06:35:57.469Z,1364
2018-06-12T06:36:17.682Z,1356
2018-06-12T06:36:38.019Z,1348
2018-06-12T06:36:58.208Z,1340
2018-06-12T06:37:18.374Z,1348
2018-06-12T06:37:38.538Z,1368
2018-06-12T06:37:58.663Z,1376
2018-06-12T06:38:18.823Z,1364
2018-06-12T06:38:38.983Z,1352
2018-06-12T06:38:59.146Z,1360
2018-06-12T06:39:19.336Z,1380
2018-06-12T06:39:39.585Z,1384
2018-06-12T06:39:59.765Z,1376
2018-06-12T06:40:20.003Z,1368
2018-06-12T06:40:40.132Z,1376
2018-06-12T06:41:00.339Z,1396
2018-06-12T06:41:20.535Z,1400
2018-06-12T06:41:40.703Z,1384
2018-06-12T06:42:00.933Z,1368
2018-06-12T06:42:21.153Z,1352
2018-06-12T06:42:41.321Z,1340
2018-06-12T06:43:01.553Z,1328
2018-06-12T06:43:21.776Z,1308
2018-06-12T06:43:41.950Z,1284
2018-06-12T06:44:02.157Z,1260
2018-06-12T06:44:22.325Z,1232
2018-06-12T06:44:42.497Z,1208
2018-06-12T06:45:02.693Z,1200
2018-06-12T06:45:22.845Z,1196
2018-06-12T06:45:43.067Z,1184
2018-06-12T06:46:03.239Z,1172
2018-06-12T06:46:23.395Z,1172
2018-06-12T06:46:43.688Z,1164
2018-06-12T06:47:03.867Z,1168
2018-06-12T06:47:24.060Z,1180
2018-06-12T06:47:44.217Z,1184
2018-06-12T06:48:04.390Z,1180
2018-06-12T06:48:24.536Z,1168
2018-06-12T06:48:44.701Z,1152
2018-06-12T06:49:04.912Z,1132
2018-06-12T06:49:25.114Z,1120
2018-06-12T06:49:45.310Z,1108
2018-06-12T06:50:05.502Z,1092
2018-06-12T06:50:25.665Z,1088
2018-06-12T06:50:45.828Z,1084
2018-06-12T06:51:06.037Z,1076
2018-06-12T06:51:26.186Z,1056
2018-06-12T06:51:46.428Z,1044
2018-06-12T06:52:06.579Z,1024
2018-06-12T06:52:26.750Z,1000
2018-06-12T06:52:46.908Z,976
2018-06-12T06:53:07.099Z,956
2018-06-12T06:53:27.258Z,940
2018-06-12T06:53:47.436Z,928
2018-06-12T06:54:07.581Z,920
2018-06-12T06:54:27.800Z,908
2018-06-12T06:54:47.948Z,896
2018-06-12T06:55:08.134Z,888
2018-06-12T06:55:28.370Z,880
2018-06-12T06:55:48.564Z,872
2018-06-12T06:56:08.779Z,864
2018-06-12T06:56:28.941Z,860
2018-06-12T06:56:49.110Z,852
2018-06-12T06:57:09.308Z,852
2018-06-12T06:57:29.466Z,844
2018-06-12T06:57:49.624Z,844
2018-06-12T06:58:09.795Z,844
2018-06-12T06:58:29.964Z,844
2018-06-12T06:58:50.230Z,848
2018-06-12T06:59:10.456Z,852
2018-06-12T06:59:30.598Z,856
2018-06-12T06:59:50.806Z,860
2018-06-12T07:00:11.023Z,868
2018-06-12T07:00:31.191Z,880
2018-06-12T07:00:51.364Z,888
2018-06-12T07:01:11.528Z,904
2018-06-12T07:01:31.750Z,916
2018-06-12T07:01:51.918Z,928
2018-06-12T07:02:12.138Z,944
2018-06-12T07:02:32.376Z,956
2018-06-12T07:02:52.544Z,976
2018-06-12T07:03:12.725Z,996
2018-06-12T07:03:32.905Z,1016
2018-06-12T07:03:53.073Z,1040
2018-06-12T07:04:13.263Z,1064
2018-06-12T07:04:33.476Z,1088
2018-06-12T07:04:53.657Z,1116
2018-06-12T07:05:13.827Z,1140
2018-06-12T07:05:34.033Z,1168
2018-06-12T07:05:54.271Z,1200
2018-06-12T07:06:14.445Z,1228
2018-06-12T07:06:34.612Z,1260
2018-06-12T07:06:54.798Z,1288
2018-06-12T07:07:14.956Z,1308
2018-06-12T07:07:35.112Z,1336
2018-06-12T07:07:55.270Z,1360
2018-06-12T07:08:15.446Z,1388
2018-06-12T07:08:35.724Z,1416
2018-06-12T07:08:55.902Z,1440
2018-06-12T07:09:16.084Z,1468
2018-06-12T07:09:36.248Z,1496
2018-06-12T07:09:56.392Z,1524
2018-06-12T07:10:16.566Z,1548
2018-06-12T07:10:36.724Z,1572
2018-06-12T07:10:56.898Z,1584
2018-06-12T07:11:17.073Z,1600
2018-06-12T07:11:37.232Z,1612
2018-06-12T07:11:57.374Z,1624
2018-06-12T07:12:17.562Z,1640
2018-06-12T07:12:37.731Z,1664
2018-06-12T07:12:57.908Z,1696
2018-06-12T07:13:18.064Z,1744
2018-06-12T07:13:38.229Z,1796
2018-06-12T07:13:58.425Z,1852
2018-06-12T07:14:18.606Z,1896
2018-06-12T07:14:38.828Z,1932
2018-06-12T07:14:59.084Z,1952
2018-06-12T07:15:19.320Z,1956
2018-06-12T07:15:39.474Z,1944
2018-06-12T07:15:59.638Z,1924
2018-06-12T07:16:19.770Z,1896
2018-06-12T07:16:39.958Z,1868
2018-06-12T07:17:00.112Z,1844
2018-06-12T07:17:20.295Z,1828
2018-06-12T07:17:40.451Z,1824
2018-06-12T07:18:00.614Z,1832
2018-06-12T07:18:20.788Z,1840
2018-06-12T07:18:40.963Z,1856
2018-06-12T07:19:01.122Z,1884
2018-06-12T07:19:21.283Z,1916
2018-06-12T07:19:41.452Z,1948
2018-06-12T07:20:01.620Z,1984
2018-06-12T07:20:21.779Z,2012
2018-06-12T07:20:42.011Z,2040
2018-06-12T07:21:02.206Z,2072
2018-06-12T07:21:22.371Z,2104
2018-06-12T07:21:42.516Z,2132
2018-06-12T07:22:02.675Z,2164
2018-06-12T07:22:22.911Z,2208
2018-06-12T07:22:43.099Z,2252
2018-06-12T07:23:03.259Z,2284
2018-06-12T07:23:23.417Z,2304
2018-06-12T07:23:43.617Z,2316
2018-06-12T07:24:03.762Z,2332
2018-06-12T07:24:23.935Z,2348
2018-06-12T07:24:44.113Z,2372
2018-06-12T07:25:04.290Z,2416
2018-06-12T07:25:24.441Z,2484
2018-06-12T07:25:44.718Z,2564
2018-06-12T07:26:04.883Z,2636
2018-06-12T07:26:25.042Z,2704
2018-06-12T07:26:45.211Z,2772
2018-06-12T07:27:05.358Z,2828
2018-06-12T07:27:25.629Z,2876
2018-06-12T07:27:45.807Z,2908
2018-06-12T07:28:05.987Z,2924
2018-06-12T07:28:26.202Z,2936
2018-06-12T07:28:46.377Z,2952
2018-06-12T07:29:06.556Z,2964
2018-06-12T07:29:26.764Z,2972
2018-06-12T07:29:46.984Z,2964
2018-06-12T07:30:07.214Z,2948
2018-06-12T07:30:27.397Z,2908
2018-06-12T07:30:47.577Z,2872
2018-06-12T07:31:07.806Z,2848
2018-06-12T07:31:27.982Z,2828
2018-06-12T07:31:48.154Z,2820
2018-06-12T07:32:08.326Z,2812
2018-06-12T07:32:28.537Z,2792
2018-06-12T07:32:48.700Z,2768
2018-06-12T07:33:08.927Z,2748
2018-06-12T07:33:29.148Z,2752
2018-06-12T07:33:49.322Z,2780
2018-06-12T07:34:09.561Z,2804
2018-06-12T07:34:29.736Z,2804
2018-06-12T07:34:49.967Z,2744
2018-06-12T07:35:10.139Z,2748
2018-06-12T07:35:30.282Z,2804
2018-06-12T07:35:50.521Z,2852
2018-06-12T07:36:10.732Z,2896
2018-06-12T07:36:30.876Z,2948
2018-06-12T07:36:51.051Z,3016
2018-06-12T07:37:11.211Z,3116
2018-06-12T07:37:31.483Z,3196
2018-06-12T07:37:51.808Z,3172
2018-06-12T07:38:11.824Z,3240
2018-06-12T07:38:31.960Z,3412
2018-06-12T07:38:52.092Z,3308
2018-06-12T07:39:12.258Z,3132
2018-06-12T07:39:32.410Z,3076
2018-06-12T07:39:52.574Z,3084
2018-06-12T07:40:12.731Z,3128
2018-06-12T07:40:32.888Z,3136
2018-06-12T07:40:53.062Z,3148
2018-06-12T07:41:13.263Z,3164
2018-06-12T07:41:33.458Z,3196
2018-06-12T07:41:53.662Z,3228
2018-06-12T07:42:13.829Z,3272
2018-06-12T07:42:33.997Z,3312
2018-06-12T07:42:54.202Z,3344
2018-06-12T07:43:14.417Z,3368
2018-06-12T07:43:34.695Z,3380
2018-06-12T07:43:54.807Z,3380
2018-06-12T07:44:14.999Z,3384
2018-06-12T07:44:35.195Z,3380
2018-06-12T07:44:55.439Z,3380
2018-06-12T07:45:15.617Z,3392
2018-06-12T07:45:35.859Z,3416
2018-06-12T07:45:55.944Z,3440
2018-06-12T07:46:16.129Z,3464
2018-06-12T07:46:36.310Z,3480
2018-06-12T07:46:56.486Z,3500
2018-06-12T07:47:16.740Z,3520
2018-06-12T07:47:36.906Z,3512
2018-06-12T07:47:57.105Z,3492
2018-06-12T07:48:17.287Z,3480
2018-06-12T07:48:37.497Z,3468
2018-06-12T07:48:57.691Z,3456
2018-06-12T07:49:17.865Z,3440
2018-06-12T07:49:38.036Z,3400
2018-06-12T07:49:58.220Z,3344
2018-06-12T07:50:18.366Z,3292
2018-06-12T07:50:38.549Z,3232
2018-06-12T07:50:58.689Z,3156
2018-06-12T07:51:18.859Z,3080
2018-06-12T07:51:39.064Z,3032
2018-06-12T07:51:59.291Z,3004
2018-06-12T07:52:19.462Z,3008
2018-06-12T07:52:39.678Z,3020
2018-06-12T07:52:59.837Z,3052
2018-06-12T07:53:20.026Z,3096
2018-06-12T07:53:40.186Z,3144
2018-06-12T07:54:00.368Z,3196
2018-06-12T07:54:20.534Z,3252
2018-06-12T07:54:40.700Z,3296
2018-06-12T07:55:00.882Z,3340
2018-06-12T07:55:21.043Z,3388
2018-06-12T07:55:41.242Z,3420
2018-06-12T07:56:01.434Z,3428
2018-06-12T07:56:21.615Z,3424
2018-06-12T07:56:41.770Z,3440
2018-06-12T07:57:01.935Z,3436
2018-06-12T07:57:22.104Z,3348
2018-06-12T07:57:42.265Z,3264
2018-06-12T07:58:02.419Z,3236
2018-06-12T07:58:22.602Z,3292
2018-06-12T07:58:42.750Z,3288
2018-06-12T07:59:02.970Z,3352
2018-06-12T07:59:23.165Z,3444
2018-06-12T07:59:43.411Z,3436
2018-06-12T08:00:03.554Z,3460
2018-06-12T08:00:23.709Z,3488
2018-06-12T08:00:43.884Z,3436
2018-06-12T08:01:04.242Z,3488
2018-06-12T08:01:24.326Z,3596
2018-06-12T08:01:44.489Z,3784
2018-06-12T08:02:04.647Z,3920
2018-06-12T08:02:24.823Z,3992
2018-06-12T08:02:45.021Z,3992
2018-06-12T08:03:05.225Z,3752
2018-06-12T08:03:25.500Z,3716
2018-06-12T08:03:45.765Z,3744
2018-06-12T08:04:05.909Z,3792
2018-06-12T08:04:26.142Z,3756
2018-06-12T08:04:46.380Z,3732
2018-06-12T08:05:06.547Z,3688
2018-06-12T08:05:26.690Z,3612
2018-06-12T08:05:46.851Z,3616
2018-06-12T08:06:07.085Z,3600
2018-06-12T08:06:27.320Z,3656
2018-06-12T08:06:47.545Z,3588
2018-06-12T08:07:07.824Z,3508
2018-06-12T08:07:27.994Z,3480
2018-06-12T08:07:48.249Z,3504
2018-06-12T08:08:08.439Z,3536
2018-06-12T08:08:28.605Z,3552
2018-06-12T08:08:48.807Z,3528
2018-06-12T08:09:09.013Z,3484
2018-06-12T08:09:29.182Z,3480
2018-06-12T08:09:49.408Z,3528
2018-06-12T08:10:09.609Z,3580
2018-06-12T08:10:29.868Z,3576
2018-06-12T08:10:50.043Z,3576
2018-06-12T08:11:10.350Z,3576
2018-06-12T08:11:30.516Z,3532
2018-06-12T08:11:50.729Z,3468
2018-06-12T08:12:10.917Z,3436
2018-06-12T08:12:31.159Z,3452
2018-06-12T08:12:51.436Z,3472
2018-06-12T08:13:11.680Z,3460
2018-06-12T08:13:31.849Z,3452
2018-06-12T08:13:52.030Z,3408
2018-06-12T08:14:12.288Z,3412
2018-06-12T08:14:32.524Z,3380
2018-06-12T08:14:52.787Z,3328
2018-06-12T08:15:13.028Z,3204
2018-06-12T08:15:33.223Z,3144
2018-06-12T08:15:53.447Z,3112
2018-06-12T08:16:13.645Z,3132
2018-06-12T08:16:33.844Z,3124
2018-06-12T08:16:54.023Z,3184
2018-06-12T08:17:14.252Z,3212
2018-06-12T08:17:34.501Z,3192
2018-06-12T08:17:54.696Z,3172
2018-06-12T08:18:14.930Z,3188
2018-06-12T08:18:35.204Z,3188
2018-06-12T08:18:55.406Z,3136
2018-06-12T08:19:15.708Z,3048
2018-06-12T08:19:35.962Z,2960
2018-06-12T08:19:56.142Z,2884
2018-06-12T08:20:16.402Z,2788
2018-06-12T08:20:36.567Z,2720
2018-06-12T08:20:56.800Z,2680
2018-06-12T08:21:17.066Z,2704
2018-06-12T08:21:37.315Z,2744
2018-06-12T08:21:57.576Z,2756
2018-06-12T08:22:17.836Z,2724
2018-06-12T08:22:38.145Z,2700
2018-06-12T08:22:58.293Z,2740
2018-06-12T08:23:18.588Z,2776
2018-06-12T08:23:38.792Z,2824
2018-06-12T08:23:59.125Z,2852
2018-06-12T08:24:19.342Z,2852
2018-06-12T08:24:39.764Z,2872
2018-06-12T08:25:00.047Z,2848
2018-06-12T08:25:20.350Z,2836
2018-06-12T08:25:40.546Z,2832
2018-06-12T08:26:00.690Z,2772
2018-06-12T08:26:20.914Z,2736
2018-06-12T08:26:41.098Z,2708
2018-06-12T08:27:01.301Z,2696
2018-06-12T08:27:21.446Z,2680
2018-06-12T08:27:41.720Z,2784
2018-06-12T08:28:01.944Z,2900
2018-06-12T08:28:22.207Z,2996
2018-06-12T08:28:42.401Z,3052
2018-06-12T08:29:02.635Z,3228
2018-06-12T08:29:22.872Z,3320
2018-06-12T08:29:43.383Z,3284
2018-06-12T08:30:03.785Z,3200
2018-06-12T08:30:24.216Z,3120
2018-06-12T08:30:44.542Z,3040
2018-06-12T08:31:04.747Z,2980
2018-06-12T08:31:24.924Z,3004
2018-06-12T08:31:45.102Z,3128
2018-06-12T08:32:06.232Z,3248
2018-06-12T08:32:26.383Z,3276
2018-06-12T08:32:46.623Z,3264
2018-06-12T08:33:06.878Z,3308
2018-06-12T08:33:27.171Z,3376
2018-06-12T08:33:47.403Z,3432
2018-06-12T08:34:07.670Z,3460
2018-06-12T08:34:27.847Z,3476
2018-06-12T08:34:48.103Z,3456
2018-06-12T08:35:08.376Z,3340
2018-06-12T08:35:28.649Z,3304
2018-06-12T08:35:48.805Z,3328
2018-06-12T08:36:08.945Z,3360
2018-06-12T08:36:29.089Z,3412
2018-06-12T08:36:49.251Z,3476
2018-06-12T08:37:10.256Z,3496
2018-06-12T08:37:30.467Z,3448
2018-06-12T08:37:50.667Z,3380
2018-06-12T08:38:10.860Z,3372
2018-06-12T08:38:31.180Z,3392
2018-06-12T08:38:51.388Z,3468
2018-06-12T08:39:11.587Z,3524
2018-06-12T08:39:31.754Z,3496
2018-06-12T08:39:51.934Z,3436
2018-06-12T08:40:12.116Z,3388
2018-06-12T08:40:32.289Z,3368
2018-06-12T08:40:52.619Z,3408
2018-06-12T08:41:13.012Z,3504
2018-06-12T08:41:33.293Z,3576
2018-06-12T08:41:53.543Z,3604
2018-06-12T08:42:13.809Z,3596
2018-06-12T08:42:33.966Z,3604
2018-06-12T08:42:54.136Z,3632
2018-06-12T08:43:14.383Z,3660
2018-06-12T08:43:34.650Z,3676
2018-06-12T08:43:54.879Z,3680
2018-06-12T08:44:15.085Z,3684
2018-06-12T08:44:35.287Z,3688
2018-06-12T08:44:55.590Z,3688
2018-06-12T08:45:15.728Z,3688
2018-06-12T08:45:35.963Z,3684
2018-06-12T08:45:56.316Z,3672
2018-06-12T08:46:16.492Z,3680
2018-06-12T08:46:36.736Z,3668
2018-06-12T08:46:56.913Z,3624
2018-06-12T08:47:17.066Z,3568
2018-06-12T08:47:37.374Z,3492
2018-06-12T08:47:57.623Z,3428
2018-06-12T08:48:17.799Z,3412
2018-06-12T08:48:37.939Z,3412
2018-06-12T08:48:58.108Z,3440
2018-06-12T08:49:18.263Z,3488
2018-06-12T08:49:38.477Z,3564
2018-06-12T08:49:58.631Z,3624
2018-06-12T08:50:18.825Z,3676
2018-06-12T08:50:39.019Z,3732
2018-06-12T08:50:59.228Z,3740
2018-06-12T08:51:19.451Z,3704
2018-06-12T08:51:39.665Z,3636
2018-06-12T08:51:59.823Z,3560
2018-06-12T08:52:20.062Z,3460
2018-06-12T08:52:40.237Z,3348
2018-06-12T08:53:00.604Z,3300
2018-06-12T08:53:21.598Z,3280
2018-06-12T08:53:41.843Z,3296
2018-06-12T08:54:02.024Z,3276
2018-06-12T08:54:22.221Z,3172
2018-06-12T08:54:42.414Z,3044
2018-06-12T08:55:02.723Z,2960
2018-06-12T08:55:22.973Z,2948
2018-06-12T08:55:43.821Z,2940
2018-06-12T08:56:04.130Z,2956
2018-06-12T08:56:24.284Z,2980
2018-06-12T08:56:44.506Z,3032
2018-06-12T08:57:04.786Z,3104
2018-06-12T08:57:24.942Z,3184
2018-06-12T08:57:45.108Z,3244
2018-06-12T08:58:05.277Z,3232
2018-06-12T08:58:25.558Z,3164
2018-06-12T08:58:45.748Z,3056
2018-06-12T08:59:05.906Z,2932
2018-06-12T08:59:26.243Z,2796
2018-06-12T08:59:46.437Z,2696
2018-06-12T09:00:06.573Z,2700
2018-06-12T09:00:26.771Z,2764
2018-06-12T09:00:47.024Z,2804
2018-06-12T09:01:07.172Z,2832
2018-06-12T09:01:27.382Z,2904
2018-06-12T09:01:47.573Z,3020
2018-06-12T09:02:07.791Z,3140
2018-06-12T09:02:27.966Z,3184
2018-06-12T09:02:48.132Z,3188
2018-06-12T09:03:08.396Z,3184
2018-06-12T09:03:28.779Z,3200
2018-06-12T09:03:49.074Z,3216
2018-06-12T09:04:09.330Z,3224
2018-06-12T09:04:29.567Z,3216
2018-06-12T09:04:49.542Z,3192
2018-06-12T09:05:09.745Z,3172
2018-06-12T09:05:29.892Z,3144
2018-06-12T09:05:50.099Z,3120
2018-06-12T09:06:10.257Z,3080
2018-06-12T09:06:30.543Z,3024
2018-06-12T09:06:50.689Z,2956
2018-06-12T09:07:10.856Z,2880
2018-06-12T09:07:31.042Z,2780
2018-06-12T09:07:51.299Z,2672
2018-06-12T09:08:11.503Z,2568
2018-06-12T09:08:31.669Z,2472
2018-06-12T09:08:51.901Z,2388
2018-06-12T09:09:12.128Z,2300
2018-06-12T09:09:32.324Z,2232
2018-06-12T09:09:52.524Z,2188
2018-06-12T09:10:12.785Z,2132
2018-06-12T09:10:32.947Z,2076
2018-06-12T09:10:53.172Z,2048
2018-06-12T09:11:13.348Z,2024
2018-06-12T09:11:33.550Z,2008
2018-06-12T09:11:53.793Z,2004
2018-06-12T09:12:13.968Z,2024
2018-06-12T09:12:34.150Z,2072
2018-06-12T09:12:54.328Z,2144
2018-06-12T09:13:14.532Z,2184
2018-06-12T09:13:34.686Z,2192
2018-06-12T09:13:54.869Z,2176
2018-06-12T09:14:15.557Z,2164
2018-06-12T09:14:35.749Z,2176
2018-06-12T09:14:55.953Z,2180
2018-06-12T09:15:16.093Z,2192
2018-06-12T09:15:36.290Z,2248
2018-06-12T09:15:56.480Z,2308
2018-06-12T09:16:16.775Z,2344
2018-06-12T09:16:36.907Z,2376
2018-06-12T09:16:57.127Z,2408
2018-06-12T09:17:17.314Z,2408
2018-06-12T09:17:37.582Z,2396
2018-06-12T09:17:57.805Z,2384
2018-06-12T09:18:17.962Z,2376
2018-06-12T09:18:38.232Z,2356
2018-06-12T09:18:58.556Z,2400
2018-06-12T09:19:18.793Z,2464
2018-06-12T09:19:39.053Z,2544
2018-06-12T09:19:59.199Z,2624
2018-06-12T09:20:19.376Z,2676
2018-06-12T09:20:39.716Z,2724
2018-06-12T09:20:59.913Z,2768
2018-06-12T09:21:20.191Z,2808
2018-06-12T09:21:40.557Z,2824
2018-06-12T09:22:00.749Z,2804
2018-06-12T09:22:20.914Z,2736
2018-06-12T09:22:41.066Z,2692
2018-06-12T09:23:01.237Z,2668
2018-06-12T09:23:21.418Z,2636
2018-06-12T09:23:41.791Z,2628
2018-06-12T09:24:01.957Z,2672
2018-06-12T09:24:22.231Z,2660
2018-06-12T09:24:42.442Z,2672
2018-06-12T09:25:02.734Z,2672
2018-06-12T09:25:22.934Z,2684
2018-06-12T09:25:43.098Z,2736
2018-06-12T09:26:03.268Z,2816
2018-06-12T09:26:23.568Z,2928
2018-06-12T09:26:43.849Z,3040
2018-06-12T09:27:04.109Z,3152
2018-06-12T09:27:24.363Z,3280
2018-06-12T09:27:44.582Z,3400
2018-06-12T09:28:04.768Z,3504
2018-06-12T09:28:24.942Z,3572
2018-06-12T09:28:45.103Z,3592
2018-06-12T09:29:05.281Z,3644
2018-06-12T09:29:25.442Z,3716
2018-06-12T09:29:45.614Z,3776
2018-06-12T09:30:05.795Z,3856
2018-06-12T09:30:26.006Z,3916
2018-06-12T09:30:46.119Z,3952
2018-06-12T09:31:06.345Z,3964
2018-06-12T09:31:26.584Z,3952
2018-06-12T09:31:46.796Z,3960
2018-06-12T09:32:06.977Z,4008
2018-06-12T09:32:27.126Z,4064
2018-06-12T09:32:47.318Z,4124
2018-06-12T09:33:07.574Z,4124
2018-06-12T09:33:27.774Z,4112
2018-06-12T09:33:47.962Z,4112
2018-06-12T09:34:08.114Z,4128
2018-06-12T09:34:28.285Z,4104
2018-06-12T09:34:48.497Z,4044
2018-06-12T09:35:08.657Z,3996
2018-06-12T09:35:28.869Z,3948
2018-06-12T09:35:49.064Z,3884
2018-06-12T09:36:09.249Z,3796
2018-06-12T09:36:29.527Z,3768
2018-06-12T09:36:49.747Z,3788
2018-06-12T09:37:09.942Z,3900
2018-06-12T09:37:30.140Z,3960
2018-06-12T09:37:50.319Z,4000
2018-06-12T09:38:10.502Z,4008
2018-06-12T09:38:30.797Z,3988
2018-06-12T09:38:51.006Z,3952
2018-06-12T09:39:11.142Z,3928
2018-06-12T09:39:31.312Z,3896
2018-06-12T09:39:51.486Z,3892
2018-06-12T09:40:11.754Z,3904
2018-06-12T09:40:31.920Z,3892
2018-06-12T09:40:52.119Z,3892
2018-06-12T09:41:12.254Z,3908
2018-06-12T09:41:32.437Z,3920
2018-06-12T09:41:52.645Z,3908
2018-06-12T09:42:12.943Z,3892
2018-06-12T09:42:33.104Z,3876
2018-06-12T09:42:53.308Z,3852
2018-06-12T09:43:13.532Z,3812
2018-06-12T09:43:33.681Z,3768
2018-06-12T09:43:53.914Z,3728
2018-06-12T09:44:14.112Z,3668
2018-06-12T09:44:35.104Z,3620
2018-06-12T09:44:55.322Z,3600
2018-06-12T09:45:15.504Z,3612
2018-06-12T09:45:35.730Z,3620
2018-06-12T09:45:55.933Z,3664
2018-06-12T09:46:16.118Z,3696
2018-06-12T09:46:36.346Z,3716
2018-06-12T09:46:56.531Z,3720
2018-06-12T09:47:16.749Z,3684
2018-06-12T09:47:36.983Z,3600
2018-06-12T09:47:57.252Z,3488
2018-06-12T09:48:17.473Z,3452
2018-06-12T09:48:37.641Z,3404
2018-06-12T09:48:57.823Z,3412
2018-06-12T09:49:18.075Z,3388
2018-06-12T09:49:38.273Z,3344
2018-06-12T09:49:58.446Z,3304
2018-06-12T09:50:18.609Z,3288
2018-06-12T09:50:38.877Z,3268
2018-06-12T09:50:59.052Z,3244
2018-06-12T09:51:20.129Z,3216
2018-06-12T09:51:40.323Z,3228
2018-06-12T09:52:00.615Z,3296
2018-06-12T09:52:20.834Z,3412
2018-06-12T09:52:41.061Z,3524
2018-06-12T09:53:01.250Z,3580
2018-06-12T09:53:21.431Z,3604
2018-06-12T09:53:41.623Z,3616
2018-06-12T09:54:01.786Z,3628
2018-06-12T09:54:21.959Z,3652
2018-06-12T09:54:42.174Z,3680
2018-06-12T09:55:02.450Z,3716
2018-06-12T09:55:22.611Z,3756
2018-06-12T09:55:42.793Z,3796
2018-06-12T09:56:03.086Z,3820
2018-06-12T09:56:23.317Z,3840
2018-06-12T09:56:43.420Z,3848
2018-06-12T09:57:03.602Z,3852
2018-06-12T09:57:24.362Z,3868
2018-06-12T09:57:44.740Z,3872
2018-06-12T09:58:05.083Z,3872
2018-06-12T09:58:25.358Z,3856
2018-06-12T09:58:45.576Z,3840
2018-06-12T09:59:05.930Z,3832
2018-06-12T09:59:26.133Z,3800
2018-06-12T09:59:46.426Z,3784
2018-06-12T10:00:06.614Z,3752
2018-06-12T10:00:26.905Z,3716
2018-06-12T10:00:47.138Z,3708
2018-06-12T10:01:08.117Z,3724
2018-06-12T10:01:28.372Z,3744
2018-06-12T10:01:49.083Z,3788
2018-06-12T10:02:09.281Z,3932
2018-06-12T10:02:29.579Z,3840
2018-06-12T10:02:49.809Z,3904
2018-06-12T10:03:09.989Z,3948
2018-06-12T10:03:30.333Z,3992
2018-06-12T10:03:51.267Z,3992
2018-06-12T10:04:11.542Z,4088
2018-06-12T10:04:31.784Z,4164
2018-06-12T10:04:51.785Z,4024
2018-06-12T10:05:11.975Z,3984
2018-06-12T10:05:32.208Z,4004
2018-06-12T10:05:52.462Z,3992
2018-06-12T10:06:12.642Z,3960
2018-06-12T10:06:32.896Z,3952
2018-06-12T10:06:53.058Z,3936
2018-06-12T10:07:13.212Z,3968
2018-06-12T10:07:33.398Z,4000
2018-06-12T10:07:53.623Z,4052